createdAt,value
2024-05-09T00:00:36.448Z,100680.81
2024-05-09T00:03:42.856Z,100673.47
2024-05-09T00:06:45.651Z,100682.00
2024-05-09T00:09:49.128Z,100672.44
2024-05-09T00:12:51.751Z,100675.19
2024-05-09T00:15:54.438Z,100677.28
2024-05-09T00:18:57.136Z,100668.75
2024-05-09T00:21:59.808Z,100667.06
2024-05-09T00:25:02.498Z,100666.84
2024-05-09T00:28:06.156Z,100670.44
2024-05-09T00:31:08.792Z,100675.66
2024-05-09T00:34:11.596Z,100665.72
2024-05-09T00:37:14.219Z,100669.31
2024-05-09T00:40:26.513Z,100676.59
2024-05-09T00:43:33.804Z,100673.97
2024-05-09T00:46:36.604Z,100672.00
2024-05-09T00:49:39.517Z,100673.03
2024-05-09T00:52:43.604Z,100671.84
2024-05-09T00:55:47.341Z,100678.03
2024-05-09T00:58:51.129Z,100665.25
2024-05-09T01:01:53.957Z,100657.75
2024-05-09T01:04:56.878Z,100668.75
2024-05-09T01:07:59.704Z,100664.66
2024-05-09T01:11:02.540Z,100660.34
2024-05-09T01:14:05.386Z,100658.09
2024-05-09T01:17:08.135Z,100661.59
2024-05-09T01:20:19.574Z,100660.16
2024-05-09T01:23:22.949Z,100668.25
2024-05-09T01:26:25.665Z,100671.78
2024-05-09T01:29:28.427Z,100669.31
2024-05-09T01:32:31.242Z,100672.22
2024-05-09T01:35:34.045Z,100675.78
2024-05-09T01:38:36.851Z,100672.50
2024-05-09T01:41:39.768Z,100672.22
2024-05-09T01:44:43.547Z,100664.56
2024-05-09T01:47:46.414Z,100667.69
2024-05-09T01:50:49.201Z,100671.06
2024-05-09T01:53:54.674Z,100671.16
2024-05-09T01:56:57.492Z,100676.22
2024-05-09T02:00:00.262Z,100667.44
2024-05-09T02:03:03.006Z,100673.00
2024-05-09T02:06:05.917Z,100673.22
2024-05-09T02:09:09.288Z,100668.63
2024-05-09T02:12:12.105Z,100662.50
2024-05-09T02:15:15.938Z,100664.81
2024-05-09T02:18:20.637Z,100665.31
2024-05-09T02:21:23.718Z,100663.72
2024-05-09T02:24:26.340Z,100667.50
2024-05-09T02:27:29.028Z,100670.03
2024-05-09T02:30:39.366Z,100671.28
2024-05-09T02:33:44.511Z,100676.66
2024-05-09T02:36:47.141Z,100671.28
2024-05-09T02:39:49.729Z,100677.53
2024-05-09T02:42:52.342Z,100677.97
2024-05-09T02:45:54.959Z,100681.44
2024-05-09T02:48:57.748Z,100666.34
2024-05-09T02:52:00.510Z,100664.53
2024-05-09T02:55:03.188Z,100669.94
2024-05-09T02:58:08.928Z,100666.88
2024-05-09T03:01:11.596Z,100671.25
2024-05-09T03:04:14.621Z,100670.03
2024-05-09T03:07:19.752Z,100681.22
2024-05-09T03:10:28.315Z,100673.16
2024-05-09T03:13:31.613Z,100674.81
2024-05-09T03:16:40.245Z,100676.25
2024-05-09T03:19:42.847Z,100673.78
2024-05-09T03:22:45.531Z,100668.63
2024-05-09T03:25:48.227Z,100664.94
2024-05-09T03:28:50.904Z,100664.53
2024-05-09T03:31:53.688Z,100661.03
2024-05-09T03:34:56.439Z,100666.25
2024-05-09T03:37:59.083Z,100667.13
2024-05-09T03:41:01.772Z,100665.44
2024-05-09T03:44:04.987Z,100670.78
2024-05-09T03:47:07.743Z,100667.50
2024-05-09T03:50:18.129Z,100664.81
2024-05-09T03:53:28.248Z,100672.22
2024-05-09T03:56:31.058Z,100675.72
2024-05-09T03:59:33.783Z,100676.09
2024-05-09T04:02:36.579Z,100674.88
2024-05-09T04:05:44.213Z,100686.63
2024-05-09T04:08:48.512Z,100680.88
2024-05-09T04:11:51.388Z,100685.16
2024-05-09T04:14:54.060Z,100687.59
2024-05-09T04:17:56.935Z,100689.22
2024-05-09T04:20:59.796Z,100697.47
2024-05-09T04:24:02.580Z,100693.28
2024-05-09T04:27:05.423Z,100695.72
2024-05-09T04:30:12.459Z,100702.84
2024-05-09T04:33:21.951Z,100700.78
2024-05-09T04:36:24.705Z,100702.16
2024-05-09T04:39:27.601Z,100699.66
2024-05-09T04:42:30.155Z,100701.59
2024-05-09T04:45:32.776Z,100706.91
2024-05-09T04:48:35.489Z,100706.53
2024-05-09T04:51:38.171Z,100718.03
2024-05-09T04:54:40.812Z,100710.19
2024-05-09T04:57:43.403Z,100714.78
2024-05-09T05:00:46.136Z,100720.63
2024-05-09T05:03:49.056Z,100727.34
2024-05-09T05:06:51.805Z,100726.28
2024-05-09T05:09:54.518Z,100725.84
2024-05-09T05:13:15.460Z,100724.13
2024-05-09T05:16:18.083Z,100723.28
2024-05-09T05:19:20.832Z,100732.88
2024-05-09T05:22:23.543Z,100729.72
2024-05-09T05:25:26.100Z,100736.22
2024-05-09T05:28:28.736Z,100733.84
2024-05-09T05:31:31.366Z,100736.31
2024-05-09T05:34:34.052Z,100739.81
2024-05-09T05:37:36.675Z,100747.22
2024-05-09T05:40:40.531Z,100743.75
2024-05-09T05:43:44.090Z,100749.59
2024-05-09T05:46:46.755Z,100747.06
2024-05-09T05:49:49.458Z,100748.44
2024-05-09T05:52:52.226Z,100749.31
2024-05-09T05:55:54.909Z,100751.25
2024-05-09T05:58:57.612Z,100762.84
2024-05-09T06:02:00.317Z,100760.50
2024-05-09T06:05:03.282Z,100752.34
2024-05-09T06:08:06.526Z,100754.88
2024-05-09T06:11:09.252Z,100757.50
2024-05-09T06:14:11.965Z,100752.47
2024-05-09T06:17:14.690Z,100760.69
2024-05-09T06:20:23.882Z,100764.09
2024-05-09T06:23:34.793Z,100772.69
2024-05-09T06:26:42.200Z,100767.97
2024-05-09T06:29:44.926Z,100772.22
2024-05-09T06:32:47.635Z,100779.22
2024-05-09T06:35:50.544Z,100779.28
2024-05-09T06:38:54.317Z,100780.06
2024-05-09T06:41:57.019Z,100782.41
2024-05-09T06:44:59.747Z,100784.59
2024-05-09T06:48:03.089Z,100778.88
2024-05-09T06:51:06.420Z,100789.72
2024-05-09T06:54:09.500Z,100789.69
2024-05-09T06:57:12.162Z,100785.03
2024-05-09T07:00:22.820Z,100792.16
2024-05-09T07:03:33.254Z,100789.13
2024-05-09T07:06:37.499Z,100797.94
2024-05-09T07:09:40.833Z,100791.09
2024-05-09T07:12:43.555Z,100787.66
2024-05-09T07:15:46.454Z,100789.59
2024-05-09T07:18:55.065Z,100783.72
2024-05-09T07:21:59.855Z,100790.38
2024-05-09T07:25:02.947Z,100793.19
2024-05-09T07:28:09.814Z,100780.09
2024-05-09T07:31:12.590Z,100771.72
2024-05-09T07:34:19.074Z,100767.81
2024-05-09T07:37:22.232Z,100773.94
2024-05-09T07:40:32.931Z,100768.66
2024-05-09T07:43:41.121Z,100770.41
2024-05-09T07:47:48.011Z,100769.34
2024-05-09T07:53:37.779Z,100772.34
2024-05-09T07:56:38.441Z,100776.44
2024-05-09T07:59:41.305Z,100774.47
2024-05-09T08:02:43.984Z,100768.97
2024-05-09T08:05:47.012Z,100773.41
2024-05-09T08:08:49.920Z,100770.50
2024-05-09T08:11:52.893Z,100772.16
2024-05-09T08:14:56.467Z,100777.53
2024-05-09T08:18:00.259Z,100770.75
2024-05-09T08:21:03.205Z,100776.09
2024-05-09T08:24:06.200Z,100776.31
2024-05-09T08:27:09.092Z,100777.31
2024-05-09T08:30:18.988Z,100775.53
2024-05-09T08:33:28.236Z,100776.66
2024-05-09T08:36:31.667Z,100774.53
2024-05-09T08:39:34.395Z,100774.53
2024-05-09T08:42:43.534Z,100774.75
2024-05-09T08:45:47.144Z,100776.56
2024-05-09T08:48:52.711Z,100779.44
2024-05-09T08:51:55.716Z,100781.31
2024-05-09T08:54:58.667Z,100781.38
2024-05-09T08:58:03.778Z,100778.56
2024-05-09T09:01:08.036Z,100780.31
2024-05-09T09:04:13.154Z,100784.41
2024-05-09T09:07:17.860Z,100775.78
2024-05-09T09:10:29.691Z,100773.53
2024-05-09T09:13:34.908Z,100777.88
2024-05-09T09:16:37.645Z,100779.16
2024-05-09T09:19:40.488Z,100775.78
2024-05-09T09:22:44.725Z,100773.53
2024-05-09T09:25:47.746Z,100782.47
2024-05-09T09:28:50.807Z,100769.00
2024-05-09T09:32:00.020Z,100770.69
2024-05-09T09:35:02.891Z,100768.97
2024-05-09T09:38:07.692Z,100759.56
2024-05-09T09:41:13.652Z,100759.75
2024-05-09T09:44:18.311Z,100765.19
2024-05-09T09:47:21.993Z,100766.44
2024-05-09T09:50:33.315Z,100756.09
2024-05-09T09:53:38.571Z,100760.13
2024-05-09T09:56:43.358Z,100754.16
2024-05-09T09:59:49.165Z,100750.03
2024-05-09T10:02:51.912Z,100760.22
2024-05-09T10:05:55.847Z,100761.53
2024-05-09T10:08:58.840Z,100764.28
2024-05-09T10:12:11.874Z,100762.22
2024-05-09T10:15:19.828Z,100755.91
2024-05-09T10:18:29.598Z,100743.88
2024-05-09T10:21:34.076Z,100744.66
2024-05-09T10:24:53.549Z,100747.63
2024-05-09T10:27:56.460Z,100739.91
2024-05-09T10:31:03.615Z,100739.94
2024-05-09T10:34:06.777Z,100740.94
2024-05-09T10:37:10.608Z,100736.09
2024-05-09T10:40:23.478Z,100729.66
2024-05-09T10:43:31.973Z,100732.41
2024-05-09T10:46:35.519Z,100728.03
2024-05-09T10:49:39.239Z,100719.13
2024-05-09T10:52:42.719Z,100723.19
2024-05-09T10:55:59.122Z,100725.63
2024-05-09T10:59:05.067Z,100714.44
2024-05-09T11:02:07.994Z,100712.88
2024-05-09T11:05:11.611Z,100703.47
2024-05-09T11:08:16.287Z,100714.72
2024-05-09T11:11:20.695Z,100717.16
2024-05-09T11:14:23.990Z,100707.38
2024-05-09T11:17:27.689Z,100705.44
2024-05-09T11:20:38.696Z,100715.56
2024-05-09T11:23:42.039Z,100700.84
2024-05-09T11:29:47.965Z,100697.00
2024-05-09T11:32:50.776Z,100699.41
2024-05-09T11:35:53.605Z,100685.19
2024-05-09T11:38:56.329Z,100676.75
2024-05-09T11:41:59.055Z,100697.66
2024-05-09T11:45:01.814Z,100681.94
2024-05-09T11:48:05.096Z,100674.47
2024-05-09T11:51:07.958Z,100671.72
2024-05-09T11:54:10.711Z,100672.16
2024-05-09T11:57:13.707Z,100678.19
2024-05-09T12:00:24.566Z,100658.81
2024-05-09T12:03:32.122Z,100652.31
2024-05-09T12:06:35.196Z,100662.28
2024-05-09T12:09:38.088Z,100656.38
2024-05-09T12:12:40.781Z,100641.31
2024-05-09T12:15:43.532Z,100650.69
2024-05-09T12:18:46.355Z,100652.22
2024-05-09T12:21:49.143Z,100647.53
2024-05-09T12:24:52.074Z,100644.19
2024-05-09T12:27:55.240Z,100645.50
2024-05-09T12:30:58.310Z,100634.44
2024-05-09T12:34:01.331Z,100626.81
2024-05-09T12:37:04.460Z,100632.06
2024-05-09T12:40:15.810Z,100631.38
2024-05-09T12:43:21.543Z,100633.34
2024-05-09T12:46:24.813Z,100640.78
2024-05-09T12:49:27.845Z,100638.56
2024-05-09T12:52:30.728Z,100622.34
2024-05-09T12:55:40.643Z,100627.69
2024-05-09T12:58:51.367Z,100621.84
2024-05-09T13:01:54.870Z,100617.53
2024-05-09T13:04:58.788Z,100609.22
2024-05-09T13:08:03.559Z,100622.22
2024-05-09T13:11:06.461Z,100613.75
2024-05-09T13:14:09.154Z,100605.31
2024-05-09T13:17:11.852Z,100601.91
2024-05-09T13:20:22.993Z,100601.72
2024-05-09T13:23:31.963Z,100607.22
2024-05-09T13:26:34.697Z,100604.41
2024-05-09T13:29:41.090Z,100605.44
2024-05-09T13:32:45.605Z,100597.41
2024-05-09T13:35:50.602Z,100593.91
2024-05-09T13:38:53.879Z,100593.31
2024-05-09T13:41:56.483Z,100598.69
2024-05-09T13:44:59.107Z,100598.03
2024-05-09T13:48:03.830Z,100584.28
2024-05-09T13:51:06.813Z,100581.16
2024-05-09T13:54:09.484Z,100574.47
2024-05-09T13:57:12.155Z,100568.59
2024-05-09T14:00:27.272Z,100581.34
2024-05-09T14:03:37.670Z,100573.69
2024-05-09T14:06:41.698Z,100571.81
2024-05-09T14:09:47.170Z,100583.69
2024-05-09T14:12:50.561Z,100577.88
2024-05-09T14:15:53.462Z,100576.03
2024-05-09T14:18:56.507Z,100577.47
2024-05-09T14:21:59.305Z,100570.66
2024-05-09T14:25:02.466Z,100564.31
2024-05-09T14:28:07.595Z,100567.88
2024-05-09T14:31:10.394Z,100561.91
2024-05-09T14:34:13.322Z,100565.47
2024-05-09T14:37:16.768Z,100561.09
2024-05-09T14:40:31.093Z,100573.00
2024-05-09T14:43:42.754Z,100562.38
2024-05-09T14:46:46.102Z,100561.94
2024-05-09T14:49:49.413Z,100556.81
2024-05-09T14:52:52.116Z,100553.72
2024-05-09T14:55:55.296Z,100545.75
2024-05-09T14:58:58.145Z,100538.69
2024-05-09T15:02:01.134Z,100531.09
2024-05-09T15:05:04.437Z,100550.16
2024-05-09T15:08:08.128Z,100538.59
2024-05-09T15:11:10.919Z,100545.81
2024-05-09T15:14:14.132Z,100538.25
2024-05-09T15:17:16.892Z,100536.47
2024-05-09T15:20:27.701Z,100535.81
2024-05-09T15:23:36.869Z,100528.97
2024-05-09T15:26:39.700Z,100529.88
2024-05-09T15:29:42.470Z,100524.94
2024-05-09T15:32:45.485Z,100524.31
2024-05-09T15:35:48.315Z,100521.16
2024-05-09T15:38:51.127Z,100516.81
2024-05-09T15:41:56.431Z,100518.25
2024-05-09T15:45:00.901Z,100523.66
2024-05-09T15:48:05.602Z,100521.41
2024-05-09T15:51:08.542Z,100521.75
2024-05-09T15:54:11.746Z,100513.78
2024-05-09T15:57:14.559Z,100517.56
2024-05-09T16:00:24.994Z,100518.56
2024-05-09T16:03:36.614Z,100512.75
2024-05-09T16:06:40.040Z,100516.75
2024-05-09T16:09:43.395Z,100510.06
2024-05-09T16:12:46.157Z,100514.81
2024-05-09T16:15:49.079Z,100511.78
2024-05-09T16:18:51.943Z,100514.81
2024-05-09T16:21:54.702Z,100513.09
2024-05-09T16:24:57.538Z,100513.66
2024-05-09T16:28:00.661Z,100516.47
2024-05-09T16:31:03.671Z,100519.91
2024-05-09T16:34:06.611Z,100516.22
2024-05-09T16:37:12.617Z,100516.41
2024-05-09T16:40:24.925Z,100519.75
2024-05-09T16:43:35.925Z,100515.41
2024-05-09T16:46:38.721Z,100515.81
2024-05-09T16:49:41.445Z,100520.38
2024-05-09T16:52:44.245Z,100512.09
2024-05-09T16:55:47.121Z,100510.56
2024-05-09T16:58:49.906Z,100517.47
2024-05-09T17:01:52.818Z,100519.97
2024-05-09T17:04:55.759Z,100517.34
2024-05-09T17:07:58.672Z,100525.03
2024-05-09T17:11:01.564Z,100520.72
2024-05-09T17:14:04.426Z,100518.28
2024-05-09T17:17:08.223Z,100515.84
2024-05-09T17:20:22.591Z,100528.06
2024-05-09T17:23:34.786Z,100530.97
2024-05-09T17:26:37.801Z,100534.78
2024-05-09T17:29:40.489Z,100533.63
2024-05-09T17:32:43.248Z,100527.75
2024-05-09T17:35:50.248Z,100532.28
2024-05-09T17:38:53.062Z,100534.50
2024-05-09T17:41:55.734Z,100534.94
2024-05-09T17:44:58.403Z,100532.66
2024-05-09T17:48:01.683Z,100535.44
2024-05-09T17:51:04.806Z,100534.09
2024-05-09T17:54:07.427Z,100545.34
2024-05-09T17:57:10.165Z,100547.75
2024-05-09T18:00:17.382Z,100553.19
2024-05-09T18:03:22.906Z,100549.88
2024-05-09T18:06:25.805Z,100557.38
2024-05-09T18:09:29.096Z,100552.13
2024-05-09T18:12:32.300Z,100559.63
2024-05-09T18:15:35.628Z,100559.25
2024-05-09T18:18:39.527Z,100564.47
2024-05-09T18:21:42.334Z,100564.44
2024-05-09T18:24:45.651Z,100570.19
2024-05-09T18:27:48.479Z,100570.69
2024-05-09T18:30:51.724Z,100574.53
2024-05-09T18:33:55.244Z,100582.16
2024-05-09T18:37:00.900Z,100575.59
2024-05-09T18:40:09.359Z,100587.66
2024-05-09T18:43:15.273Z,100590.59
2024-05-09T18:46:18.469Z,100595.72
2024-05-09T18:49:21.687Z,100601.56
2024-05-09T18:52:24.581Z,100609.69
2024-05-09T18:55:27.537Z,100614.56
2024-05-09T18:58:30.504Z,100619.31
2024-05-09T19:01:33.743Z,100619.25
2024-05-09T19:04:36.746Z,100616.25
2024-05-09T19:07:40.578Z,100628.84
2024-05-09T19:10:45.970Z,100627.22
2024-05-09T19:13:49.402Z,100629.47
2024-05-09T19:16:52.615Z,100624.59
2024-05-09T19:19:55.608Z,100629.88
2024-05-09T19:22:58.578Z,100628.13
2024-05-09T19:26:03.144Z,100627.91
2024-05-09T19:29:06.374Z,100632.28
2024-05-09T19:32:09.125Z,100639.22
2024-05-09T19:35:12.130Z,100644.25
2024-05-09T19:38:15.121Z,100653.38
2024-05-09T19:41:18.315Z,100660.31
2024-05-09T19:44:22.029Z,100658.06
2024-05-09T19:47:26.415Z,100658.88
2024-05-09T19:50:37.217Z,100670.00
2024-05-09T19:53:45.122Z,100674.19
2024-05-09T19:56:48.138Z,100675.59
2024-05-09T19:59:51.783Z,100676.75
2024-05-09T20:02:55.391Z,100677.88
2024-05-09T20:05:58.399Z,100679.03
2024-05-09T20:09:01.864Z,100680.44
2024-05-09T20:12:05.549Z,100676.44
2024-05-09T20:15:09.045Z,100678.84
2024-05-09T20:18:13.392Z,100680.66
2024-05-09T20:21:17.052Z,100683.94
2024-05-09T20:24:20.896Z,100686.94
2024-05-09T20:27:24.156Z,100687.38
2024-05-09T20:30:32.145Z,100689.13
2024-05-09T20:33:37.975Z,100695.03
2024-05-09T20:36:41.149Z,100699.06
2024-05-09T20:39:44.111Z,100713.06
2024-05-09T20:42:47.147Z,100717.22
2024-05-09T20:45:50.060Z,100715.41
2024-05-09T20:48:53.297Z,100724.00
2024-05-09T20:51:56.282Z,100723.47
2024-05-09T20:54:58.990Z,100715.00
2024-05-09T20:58:01.681Z,100727.50
2024-05-09T21:01:04.592Z,100724.69
2024-05-09T21:04:07.559Z,100735.13
2024-05-09T21:07:10.388Z,100734.09
2024-05-09T21:10:19.364Z,100727.94
2024-05-09T21:13:25.367Z,100736.84
2024-05-09T21:16:28.178Z,100743.47
2024-05-09T21:19:30.907Z,100742.28
2024-05-09T21:22:33.546Z,100738.97
2024-05-09T21:25:36.328Z,100742.72
2024-05-09T21:28:39.027Z,100744.59
2024-05-09T21:31:41.697Z,100745.28
2024-05-09T21:34:44.449Z,100742.81
2024-05-09T21:37:47.248Z,100743.03
2024-05-09T21:40:50.120Z,100741.25
2024-05-09T21:43:52.863Z,100748.31
2024-05-09T21:46:56.315Z,100736.53
2024-05-09T21:49:58.944Z,100751.56
2024-05-09T21:53:01.744Z,100749.94
2024-05-09T21:56:04.616Z,100751.25
2024-05-09T21:59:07.230Z,100747.94
2024-05-09T22:02:10.051Z,100747.91
2024-05-09T22:05:13.849Z,100752.69
2024-05-09T22:08:16.827Z,100749.66
2024-05-09T22:11:19.564Z,100748.00
2024-05-09T22:14:22.437Z,100746.41
2024-05-09T22:17:25.108Z,100753.44
2024-05-09T22:20:34.404Z,100755.53
2024-05-09T22:23:40.556Z,100754.69
2024-05-09T22:26:43.153Z,100754.91
2024-05-09T22:29:45.796Z,100750.16
2024-05-09T22:32:48.500Z,100751.59
2024-05-09T22:35:51.553Z,100757.19
2024-05-09T22:38:54.185Z,100756.38
2024-05-09T22:41:56.765Z,100764.88
2024-05-09T22:44:59.371Z,100765.06
2024-05-09T22:48:02.122Z,100767.34
2024-05-09T22:51:05.090Z,100766.31
2024-05-09T22:54:07.871Z,100767.38
2024-05-09T22:57:10.507Z,100771.06
2024-05-09T23:00:15.994Z,100761.22
2024-05-09T23:03:21.528Z,100763.47
2024-05-09T23:06:24.581Z,100763.88
2024-05-09T23:09:27.381Z,100762.66
2024-05-09T23:12:30.003Z,100771.53
2024-05-09T23:15:32.763Z,100764.28
2024-05-09T23:18:35.455Z,100774.19
2024-05-09T23:21:39.929Z,100770.03
2024-05-09T23:24:42.938Z,100780.13
2024-05-09T23:27:45.617Z,100777.88
2024-05-09T23:30:48.381Z,100778.28
2024-05-09T23:33:51.220Z,100776.44
2024-05-09T23:36:54.085Z,100783.25
2024-05-09T23:39:56.748Z,100772.28
2024-05-09T23:42:59.525Z,100777.59
2024-05-09T23:46:02.635Z,100772.44
2024-05-09T23:49:05.870Z,100768.44
2024-05-09T23:52:08.544Z,100773.00
2024-05-09T23:55:11.278Z,100767.66
2024-05-09T23:58:14.100Z,100761.03
